Puritas Park, Ohio
Current Conditions -  °F | °C
As of 7:51 AM on Friday 28 Nov 2014 (Local Time) from KCLE Reporting Station
Broken Clouds Broken Clouds  
Wind Chill: 12°   Ceiling: 3400
Heat Index: 21°   Visibility: 10mi
Dew Point: 13°   Wind: 7mph
Humidity: 71%   Direction: 220°SW
Pressure: 30.36"   Gusts: NA
Location:  41.4315°N, 81.8114°W
Report Text: KCLE 281251Z 22006KT 10SM BKN034 M06/M11 A3036 RMK AO2 SLP292 VCSH T10611106 $
Loading
Personal Weather Stations






























Interactive Weather Map New forecast layout! Learn more

10-Day Weather Forecast

Advertisements
Track Severe Weather on mobile